Time,TemperatureF,DewpointF,PressureIn,WindDirection,WindDirectionDegrees,WindSpeedMPH,WindSpeedGustMPH,Humidity,HourlyPrecipIn,Conditions,Clouds,dailyrainin,SolarRadiationWatts/m^2,SoftwareType,DateUTC
2013-02-10 00:01:00,35.0,29.0,-100.00,ESE,102,2.0,6.0,79,0.00,,,0.00,0.000000,,2013-02-10 08:01:00,
2013-02-10 00:11:00,35.0,29.0,-100.00,ESE,102,2.0,6.0,79,0.00,,,0.00,0.000000,,2013-02-10 08:11:00,
2013-02-10 00:43:00,35.0,29.0,-100.00,East,83,5.0,7.0,80,0.00,,,0.00,0.000000,,2013-02-10 08:43:00,
2013-02-10 00:52:00,35.0,29.0,-100.00,East,83,5.0,7.0,80,0.00,,,0.00,0.000000,,2013-02-10 08:52:00,
2013-02-10 01:02:00,35.0,29.0,-100.00,East,83,5.0,7.0,80,0.00,,,0.00,0.000000,,2013-02-10 09:02:00,
2013-02-10 01:11:00,35.0,29.0,-100.00,East,83,5.0,7.0,80,0.00,,,0.00,0.000000,,2013-02-10 09:11:00,
2013-02-10 01:32:00,35.0,30.0,-100.00,East,79,5.0,8.0,83,0.00,,,0.00,0.000000,,2013-02-10 09:32:00,
2013-02-10 01:42:00,35.0,30.0,-100.00,East,79,5.0,8.0,83,0.00,,,0.00,0.000000,,2013-02-10 09:42:00,
2013-02-10 01:52:00,35.0,30.0,-100.00,East,79,5.0,8.0,83,0.00,,,0.00,0.000000,,2013-02-10 09:52:00,
2013-02-10 02:01:00,35.0,30.0,-100.00,East,79,5.0,8.0,83,0.00,,,0.00,0.000000,,2013-02-10 10:01:00,
2013-02-10 02:11:00,35.0,30.0,-100.00,East,79,5.0,8.0,83,0.00,,,0.00,0.000000,,2013-02-10 10:11:00,
2013-02-10 02:42:00,34.0,29.0,-100.00,East,82,5.0,6.0,83,0.00,,,0.00,0.000000,,2013-02-10 10:42:00,
2013-02-10 02:52:00,34.0,29.0,-100.00,East,82,5.0,6.0,83,0.00,,,0.00,0.000000,,2013-02-10 10:52:00,
2013-02-10 03:01:00,34.0,29.0,-100.00,East,82,5.0,6.0,83,0.00,,,0.00,0.000000,,2013-02-10 11:01:00,
2013-02-10 03:11:00,34.0,29.0,-100.00,East,82,5.0,6.0,83,0.00,,,0.00,0.000000,,2013-02-10 11:11:00,
2013-02-10 03:32:00,35.0,30.0,-100.00,ENE,73,6.0,7.0,82,0.00,,,0.00,0.000000,,2013-02-10 11:32:00,
2013-02-10 03:42:00,35.0,30.0,-100.00,ENE,73,6.0,7.0,82,0.00,,,0.00,0.000000,,2013-02-10 11:42:00,
2013-02-10 03:52:00,35.0,30.0,-100.00,ENE,73,6.0,7.0,82,0.00,,,0.00,0.000000,,2013-02-10 11:52:00,
2013-02-10 04:01:00,35.0,30.0,-100.00,ENE,73,6.0,7.0,82,0.00,,,0.00,0.000000,,2013-02-10 12:01:00,
2013-02-10 04:12:00,35.0,30.0,-100.00,ENE,73,6.0,7.0,82,0.00,,,0.00,0.000000,,2013-02-10 12:12:00,
2013-02-10 07:32:00,34.0,28.0,-100.00,ENE,70,6.0,7.0,79,-99.99,,,0.00,5.000000,,2013-02-10 15:32:00,
2013-02-10 07:42:00,34.0,28.0,-100.00,ENE,70,6.0,7.0,79,-99.99,,,0.00,5.000000,,2013-02-10 15:42:00,
2013-02-10 07:52:00,34.0,28.0,-100.00,ENE,70,6.0,7.0,79,-99.99,,,0.00,5.000000,,2013-02-10 15:52:00,
2013-02-10 08:01:00,34.0,28.0,-100.00,ENE,70,6.0,7.0,79,-99.99,,,0.00,5.000000,,2013-02-10 16:01:00,
2013-02-10 08:11:00,34.0,28.0,-100.00,ENE,70,6.0,7.0,79,-99.99,,,0.00,5.000000,,2013-02-10 16:11:00,
2013-02-10 08:32:00,37.0,32.0,-100.00,East,90,0.0,7.0,81,0.00,,,0.00,76.000000,,2013-02-10 16:32:00,
2013-02-10 08:42:00,37.0,32.0,-100.00,East,90,0.0,7.0,81,0.00,,,0.00,76.000000,,2013-02-10 16:42:00,
2013-02-10 08:52:00,37.0,32.0,-100.00,East,90,0.0,7.0,81,0.00,,,0.00,76.000000,,2013-02-10 16:52:00,
2013-02-10 09:01:00,37.0,32.0,-100.00,East,90,0.0,7.0,81,0.00,,,0.00,76.000000,,2013-02-10 17:01:00,
2013-02-10 09:11:00,37.0,32.0,-100.00,East,90,0.0,7.0,81,0.00,,,0.00,76.000000,,2013-02-10 17:11:00,
2013-02-10 09:32:00,48.0,33.0,-100.00,South,173,2.0,4.0,56,0.00,,,0.00,335.000000,,2013-02-10 17:32:00,
2013-02-10 09:42:00,48.0,33.0,-100.00,South,173,2.0,4.0,56,0.00,,,0.00,335.000000,,2013-02-10 17:42:00,
2013-02-10 09:52:00,48.0,33.0,-100.00,South,173,2.0,4.0,56,0.00,,,0.00,335.000000,,2013-02-10 17:52:00,
2013-02-10 10:01:00,48.0,33.0,-100.00,South,173,2.0,4.0,56,0.00,,,0.00,335.000000,,2013-02-10 18:01:00,
2013-02-10 10:11:00,48.0,33.0,-100.00,South,173,2.0,4.0,56,0.00,,,0.00,335.000000,,2013-02-10 18:11:00,
2013-02-10 10:42:00,49.0,30.0,-100.00,West,269,4.0,6.0,47,0.00,,,0.00,498.000000,,2013-02-10 18:42:00,
2013-02-10 10:52:00,49.0,30.0,-100.00,West,269,4.0,6.0,47,0.00,,,0.00,498.000000,,2013-02-10 18:52:00,
2013-02-10 11:01:00,49.0,30.0,-100.00,West,269,4.0,6.0,47,0.00,,,0.00,498.000000,,2013-02-10 19:01:00,
2013-02-10 11:11:00,49.0,30.0,-100.00,West,269,4.0,6.0,47,0.00,,,0.00,498.000000,,2013-02-10 19:11:00,
2013-02-10 11:32:00,50.0,30.0,-100.00,WSW,237,4.0,9.0,46,0.00,,,0.00,619.000000,,2013-02-10 19:32:00,
2013-02-10 11:43:00,50.0,30.0,-100.00,WSW,237,4.0,9.0,46,0.00,,,0.00,619.000000,,2013-02-10 19:43:00,
2013-02-10 11:52:00,50.0,30.0,-100.00,WSW,237,4.0,9.0,46,0.00,,,0.00,619.000000,,2013-02-10 19:52:00,
2013-02-10 12:01:00,50.0,30.0,-100.00,WSW,237,4.0,9.0,46,0.00,,,0.00,619.000000,,2013-02-10 20:01:00,
2013-02-10 12:11:00,50.0,30.0,-100.00,WSW,237,4.0,9.0,46,0.00,,,0.00,619.000000,,2013-02-10 20:11:00,
2013-02-10 12:42:00,51.0,31.0,-100.00,West,259,5.0,10.0,46,0.00,,,0.00,669.000000,,2013-02-10 20:42:00,
2013-02-10 12:52:00,51.0,31.0,-100.00,West,259,5.0,10.0,46,0.00,,,0.00,669.000000,,2013-02-10 20:52:00,
2013-02-10 13:02:00,51.0,31.0,-100.00,West,259,5.0,10.0,46,0.00,,,0.00,669.000000,,2013-02-10 21:02:00,
2013-02-10 13:11:00,51.0,31.0,-100.00,West,259,5.0,10.0,46,0.00,,,0.00,669.000000,,2013-02-10 21:11:00,
2013-02-10 13:32:00,51.0,28.0,-100.00,WSW,243,6.0,10.0,41,0.00,,,0.00,658.000000,,2013-02-10 21:32:00,
2013-02-10 13:42:00,51.0,28.0,-100.00,WSW,243,6.0,10.0,41,0.00,,,0.00,658.000000,,2013-02-10 21:42:00,
2013-02-10 13:52:00,51.0,28.0,-100.00,WSW,243,6.0,10.0,41,0.00,,,0.00,658.000000,,2013-02-10 21:52:00,
2013-02-10 14:01:00,51.0,28.0,-100.00,WSW,243,6.0,10.0,41,0.00,,,0.00,658.000000,,2013-02-10 22:01:00,
2013-02-10 14:11:00,51.0,28.0,-100.00,WSW,243,6.0,10.0,41,0.00,,,0.00,658.000000,,2013-02-10 22:11:00,
2013-02-10 14:42:00,52.0,31.0,-100.00,WSW,256,6.0,10.0,44,0.00,,,0.00,586.000000,,2013-02-10 22:42:00,
2013-02-10 14:52:00,52.0,31.0,-100.00,WSW,256,6.0,10.0,44,0.00,,,0.00,586.000000,,2013-02-10 22:52:00,
2013-02-10 15:01:00,52.0,31.0,-100.00,WSW,256,6.0,10.0,44,0.00,,,0.00,586.000000,,2013-02-10 23:01:00,
2013-02-10 15:11:00,52.0,31.0,-100.00,WSW,256,6.0,10.0,44,0.00,,,0.00,586.000000,,2013-02-10 23:11:00,
2013-02-10 15:42:00,52.0,31.0,-100.00,WSW,251,5.0,10.0,45,0.00,,,0.00,380.000000,,2013-02-10 23:42:00,
2013-02-10 15:52:00,52.0,31.0,-100.00,WSW,251,5.0,10.0,45,0.00,,,0.00,380.000000,,2013-02-10 23:52:00,
2013-02-10 16:01:00,52.0,31.0,-100.00,WSW,251,5.0,10.0,45,0.00,,,0.00,380.000000,,2013-02-11 00:01:00,
2013-02-10 16:11:00,52.0,31.0,-100.00,WSW,251,5.0,10.0,45,0.00,,,0.00,380.000000,,2013-02-11 00:11:00,
2013-02-10 16:42:00,51.0,30.0,-100.00,WSW,249,5.0,8.0,45,0.00,,,0.00,265.000000,,2013-02-11 00:42:00,
2013-02-10 16:52:00,51.0,30.0,-100.00,WSW,249,5.0,8.0,45,0.00,,,0.00,265.000000,,2013-02-11 00:52:00,
2013-02-10 17:01:00,51.0,30.0,-100.00,WSW,249,5.0,8.0,45,0.00,,,0.00,265.000000,,2013-02-11 01:01:00,
2013-02-10 17:11:00,51.0,30.0,-100.00,WSW,249,5.0,8.0,45,0.00,,,0.00,265.000000,,2013-02-11 01:11:00,
2013-02-10 18:42:00,41.0,32.0,-100.00,ENE,61,5.0,7.0,69,-99.99,,,0.00,5.000000,,2013-02-11 02:42:00,
2013-02-10 18:52:00,41.0,32.0,-100.00,ENE,61,5.0,7.0,69,-99.99,,,0.00,5.000000,,2013-02-11 02:52:00,
2013-02-10 19:01:00,41.0,32.0,-100.00,ENE,61,5.0,7.0,69,-99.99,,,0.00,5.000000,,2013-02-11 03:01:00,
2013-02-10 19:11:00,41.0,32.0,-100.00,ENE,61,5.0,7.0,69,-99.99,,,0.00,5.000000,,2013-02-11 03:11:00,
2013-02-10 19:32:00,38.0,31.0,-100.00,ENE,71,4.0,8.0,76,0.00,,,0.00,0.000000,,2013-02-11 03:32:00,
2013-02-10 19:42:00,38.0,31.0,-100.00,ENE,71,4.0,8.0,76,0.00,,,0.00,0.000000,,2013-02-11 03:42:00,
2013-02-10 19:52:00,38.0,31.0,-100.00,ENE,71,4.0,8.0,76,0.00,,,0.00,0.000000,,2013-02-11 03:52:00,
2013-02-10 20:01:00,38.0,31.0,-100.00,ENE,71,4.0,8.0,76,0.00,,,0.00,0.000000,,2013-02-11 04:01:00,
2013-02-10 20:11:00,38.0,31.0,-100.00,ENE,71,4.0,8.0,76,0.00,,,0.00,0.000000,,2013-02-11 04:11:00,
2013-02-10 20:32:00,37.0,31.0,-100.00,ENE,64,4.0,6.0,79,0.00,,,0.00,0.000000,,2013-02-11 04:32:00,
2013-02-10 20:42:00,37.0,31.0,-100.00,ENE,64,4.0,6.0,79,0.00,,,0.00,0.000000,,2013-02-11 04:42:00,
2013-02-10 20:52:00,37.0,31.0,-100.00,ENE,64,4.0,6.0,79,0.00,,,0.00,0.000000,,2013-02-11 04:52:00,
2013-02-10 21:01:00,37.0,31.0,-100.00,ENE,64,4.0,6.0,79,0.00,,,0.00,0.000000,,2013-02-11 05:01:00,
2013-02-10 21:11:00,37.0,31.0,-100.00,ENE,64,4.0,6.0,79,0.00,,,0.00,0.000000,,2013-02-11 05:11:00,
2013-02-10 21:42:00,36.0,31.0,-100.00,SE,138,1.0,7.0,81,0.00,,,0.00,0.000000,,2013-02-11 05:42:00,
2013-02-10 21:52:00,36.0,31.0,-100.00,SE,138,1.0,7.0,81,0.00,,,0.00,0.000000,,2013-02-11 05:52:00,
2013-02-10 22:01:00,36.0,31.0,-100.00,SE,138,1.0,7.0,81,0.00,,,0.00,0.000000,,2013-02-11 06:01:00,
2013-02-10 22:11:00,36.0,31.0,-100.00,SE,138,1.0,7.0,81,0.00,,,0.00,0.000000,,2013-02-11 06:11:00,
2013-02-10 22:42:00,37.0,31.0,-100.00,East,88,2.0,4.0,79,0.00,,,0.00,0.000000,,2013-02-11 06:42:00,
2013-02-10 22:52:00,37.0,31.0,-100.00,East,88,2.0,4.0,79,0.00,,,0.00,0.000000,,2013-02-11 06:52:00,
2013-02-10 23:01:00,37.0,31.0,-100.00,East,88,2.0,4.0,79,0.00,,,0.00,0.000000,,2013-02-11 07:01:00,
2013-02-10 23:11:00,37.0,31.0,-100.00,East,88,2.0,4.0,79,0.00,,,0.00,0.000000,,2013-02-11 07:11:00,
2013-02-10 23:42:00,38.0,32.0,-100.00,WSW,250,1.0,3.0,78,0.00,,,0.00,0.000000,,2013-02-11 07:42:00,
2013-02-10 23:52:00,38.0,32.0,-100.00,WSW,250,1.0,3.0,78,0.00,,,0.00,0.000000,,2013-02-11 07:52:00,